createdAt,value
2022-08-20T15:23:47.883Z,101361.94
2022-08-20T15:26:54.650Z,101355.19
2022-08-20T15:30:01.508Z,101388.56
2022-08-20T15:33:08.883Z,101371.94
2022-08-20T15:36:15.837Z,101371.81
2022-08-20T15:39:23.677Z,101367.47
2022-08-20T15:42:30.170Z,101366.78
2022-08-20T15:45:37.434Z,101364.09
2022-08-20T15:48:47.338Z,101359.88
2022-08-20T15:51:53.569Z,101320.69
2022-08-20T15:55:02.136Z,101326.03
2022-08-20T15:58:16.171Z,101293.69
2022-08-20T16:01:32.167Z,101302.09
2022-08-20T16:05:02.710Z,101321.16
2022-08-20T16:08:34.996Z,101318.75
2022-08-20T16:11:56.617Z,101297.44
2022-08-20T16:15:11.332Z,101304.81
2022-08-20T16:18:24.358Z,101296.38
2022-08-20T16:21:36.754Z,101297.59
2022-08-20T16:24:43.690Z,101297.72
2022-08-20T16:28:00.836Z,101298.97
2022-08-20T16:31:14.183Z,101284.94
2022-08-20T16:34:33.530Z,101306.44
2022-08-20T16:37:53.937Z,101317.09
2022-08-20T16:41:07.056Z,101340.00
2022-08-20T16:44:25.437Z,101348.09
2022-08-20T16:47:40.726Z,101349.31
2022-08-20T16:50:57.668Z,101355.91
2022-08-20T16:54:05.030Z,101367.25
2022-08-20T16:57:16.980Z,101381.09
2022-08-20T17:00:34.976Z,101377.66
2022-08-20T17:03:50.907Z,101397.09
2022-08-20T17:07:01.657Z,101431.19
2022-08-20T17:10:17.988Z,101444.19
2022-08-20T17:13:29.166Z,101446.78
2022-08-20T17:16:43.100Z,101447.63
2022-08-20T17:19:58.576Z,101444.97
2022-08-20T17:23:16.314Z,101419.81
2022-08-20T17:26:29.185Z,101439.78
2022-08-20T17:29:49.447Z,101443.31
2022-08-20T17:33:01.882Z,101445.88
2022-08-20T17:36:12.247Z,101453.69
2022-08-20T17:39:22.680Z,101441.47
2022-08-20T17:42:28.873Z,101433.78
2022-08-20T17:45:42.749Z,101439.91
2022-08-20T17:48:51.661Z,101471.28
2022-08-20T17:51:59.205Z,101486.13
2022-08-20T17:55:07.480Z,101497.44
2022-08-20T17:58:18.574Z,101500.06
2022-08-20T18:01:25.959Z,101507.03
2022-08-20T18:04:34.162Z,101516.56
2022-08-20T18:07:57.358Z,101524.31
2022-08-20T18:11:19.834Z,101525.19
2022-08-20T18:14:43.705Z,101530.34
2022-08-20T18:18:17.173Z,101543.31
2022-08-20T18:21:54.446Z,101540.69
2022-08-20T18:25:07.934Z,101541.47
2022-08-20T18:28:21.382Z,101555.22
2022-08-20T18:31:34.656Z,101552.59
2022-08-20T18:34:42.664Z,101558.53
2022-08-20T18:37:50.886Z,101563.63
2022-08-20T18:41:15.100Z,101560.94
2022-08-20T18:44:31.453Z,101554.81
2022-08-20T18:47:45.669Z,101555.59
2022-08-20T18:50:56.662Z,101555.50
2022-08-20T18:54:05.311Z,101550.19
2022-08-20T18:57:22.533Z,101554.38
2022-08-20T19:00:38.150Z,101551.63
2022-08-20T19:03:50.558Z,101548.94
2022-08-20T19:07:01.582Z,101548.91
2022-08-20T19:10:51.049Z,101544.47
2022-08-20T19:14:35.557Z,101551.19
2022-08-20T19:17:52.529Z,101557.13
2022-08-20T19:21:03.757Z,101561.22
2022-08-20T19:24:13.188Z,101569.72
2022-08-20T19:27:21.557Z,101575.56
2022-08-20T19:30:33.241Z,101586.66
2022-08-20T19:33:44.147Z,101589.06
2022-08-20T19:36:58.979Z,101580.44
2022-08-20T19:40:24.474Z,101583.69
2022-08-20T19:43:44.035Z,101581.75
2022-08-20T19:46:51.482Z,101585.00
2022-08-20T19:50:10.762Z,101582.28
2022-08-20T19:53:27.467Z,101577.94
2022-08-20T19:56:42.227Z,101582.91
2022-08-20T20:00:05.172Z,101589.63
2022-08-20T20:03:13.940Z,101580.88
2022-08-20T20:06:24.458Z,101581.63
2022-08-20T20:09:31.653Z,101578.09
2022-08-20T20:12:40.023Z,101579.00
2022-08-20T20:15:50.350Z,101577.19
2022-08-20T20:19:22.627Z,101593.41
2022-08-20T20:22:28.265Z,101585.56
2022-08-20T20:25:42.978Z,101594.06
2022-08-20T20:28:53.948Z,101582.03
2022-08-20T20:32:14.187Z,101578.56
2022-08-20T20:35:29.860Z,101587.84
2022-08-20T20:38:42.367Z,101593.72
2022-08-20T20:41:53.652Z,101584.25
2022-08-20T20:45:00.299Z,101586.81
2022-08-20T20:48:23.410Z,101578.19
2022-08-20T20:51:33.438Z,101583.22
2022-08-20T20:54:43.857Z,101584.03
2022-08-20T20:57:51.357Z,101583.84
2022-08-20T21:00:57.805Z,101587.13
2022-08-20T21:04:06.121Z,101596.31
2022-08-20T21:07:21.256Z,101593.56
2022-08-20T21:10:34.177Z,101595.13
2022-08-20T21:13:41.074Z,101594.91
2022-08-20T21:16:53.793Z,101593.78
2022-08-20T21:20:02.542Z,101594.41
2022-08-20T21:23:09.150Z,101590.84
2022-08-20T21:26:15.484Z,101596.75
2022-08-20T21:29:32.243Z,101592.31
2022-08-20T21:32:39.541Z,101595.50
2022-08-20T21:35:47.225Z,101585.84
2022-08-20T21:38:53.890Z,101592.53
2022-08-20T21:42:04.671Z,101589.00
2022-08-20T21:45:28.254Z,101593.09
2022-08-20T21:48:35.002Z,101588.72
2022-08-20T21:51:43.003Z,101592.94
2022-08-20T21:54:49.674Z,101581.63
2022-08-20T21:57:56.309Z,101579.69
2022-08-20T22:01:06.203Z,101586.53
2022-08-20T22:04:12.544Z,101583.06
2022-08-20T22:07:20.242Z,101579.50
2022-08-20T22:10:26.978Z,101578.47
2022-08-20T22:13:34.950Z,101585.09
2022-08-20T22:16:42.329Z,101583.91
2022-08-20T22:19:52.234Z,101586.25
2022-08-20T22:23:02.212Z,101583.47
2022-08-20T22:26:09.865Z,101586.50
2022-08-20T22:29:16.336Z,101581.00
2022-08-20T22:32:22.922Z,101580.63
2022-08-20T22:35:46.631Z,101578.06
2022-08-20T22:38:55.089Z,101566.88
2022-08-20T22:42:01.321Z,101572.56
2022-08-20T22:45:14.552Z,101568.06
2022-08-20T22:48:22.637Z,101576.66
2022-08-20T22:51:34.932Z,101570.50
2022-08-20T22:54:44.782Z,101579.84
2022-08-20T22:57:51.759Z,101576.19
2022-08-20T23:00:59.609Z,101573.53
2022-08-20T23:04:11.880Z,101569.88
2022-08-20T23:07:19.410Z,101569.69
2022-08-20T23:10:29.810Z,101564.47
2022-08-20T23:13:36.358Z,101561.94
2022-08-20T23:16:46.437Z,101555.09
2022-08-20T23:19:53.056Z,101563.34
2022-08-20T23:22:59.846Z,101560.47
2022-08-20T23:26:08.509Z,101566.22
2022-08-20T23:29:15.262Z,101557.69
2022-08-20T23:32:28.792Z,101561.00
2022-08-20T23:35:35.121Z,101556.59
2022-08-20T23:38:41.779Z,101555.47
2022-08-20T23:41:49.692Z,101548.44
2022-08-20T23:44:56.284Z,101545.03
2022-08-20T23:48:02.749Z,101539.25
2022-08-20T23:51:09.030Z,101539.38
2022-08-20T23:54:15.782Z,101539.44
2022-08-20T23:57:23.382Z,101534.38
